Huize, China
Current Conditions -  °F | °C
As of 10:00 PM on Thursday 27 Nov 2014 (Local Time) from ZPPP Reporting Station
Clear Clear  
Wind Chill: 42°   Ceiling: Unl
Heat Index: 48°   Visibility: 6mi
Dew Point: 34°   Wind: 16mph
Humidity: 57%   Direction: 220°SW
Pressure: 30.12"   Gusts: NA
Location:  26.42°N, 103.28°E
Report Text: ZPPP 271400Z 22007MPS CAVOK 09/01 Q1020 NOSIG
Loading
Personal Weather Stations






























Interactive Weather Map New forecast layout! Learn more

10-Day Weather Forecast

Advertisements
Track Severe Weather on mobile